sensor_id;sensor_type;location;lat;lon;timestamp;P1;durP1;ratioP1;P2;durP2;ratioP2
20857;SDS011;10589;53.636;10.012;2023-02-22T04:46:23;45.10;;;15.40;;
20857;SDS011;10589;53.636;10.012;2023-02-22T04:48:49;40.47;;;15.80;;
20857;SDS011;10589;53.636;10.012;2023-02-22T04:51:14;37.30;;;14.80;;
20857;SDS011;10589;53.636;10.012;2023-02-22T04:53:40;47.33;;;16.67;;
20857;SDS011;10589;53.636;10.012;2023-02-22T04:56:06;35.07;;;14.13;;
20857;SDS011;10589;53.636;10.012;2023-02-22T04:58:31;35.67;;;15.13;;
20857;SDS011;10589;53.636;10.012;2023-02-22T05:00:57;38.70;;;14.23;;
20857;SDS011;10589;53.636;10.012;2023-02-22T05:03:23;42.43;;;16.37;;
20857;SDS011;10589;53.636;10.012;2023-02-22T05:05:50;38.03;;;16.00;;
20857;SDS011;10589;53.636;10.012;2023-02-22T05:08:17;38.47;;;15.40;;
20857;SDS011;10589;53.636;10.012;2023-02-22T05:10:43;44.27;;;18.13;;
20857;SDS011;10589;53.636;10.012;2023-02-22T05:13:08;54.43;;;16.80;;
20857;SDS011;10589;53.636;10.012;2023-02-22T05:15:34;48.97;;;17.40;;
20857;SDS011;10589;53.636;10.012;2023-02-22T05:18:00;48.20;;;17.10;;
20857;SDS011;10589;53.636;10.012;2023-02-22T05:20:27;42.57;;;15.83;;
20857;SDS011;10589;53.636;10.012;2023-02-22T05:22:59;45.60;;;16.23;;
20857;SDS011;10589;53.636;10.012;2023-02-22T05:25:27;40.90;;;17.20;;
20857;SDS011;10589;53.636;10.012;2023-02-22T05:27:54;35.93;;;15.30;;
20857;SDS011;10589;53.636;10.012;2023-02-22T05:30:23;43.83;;;16.23;;
20857;SDS011;10589;53.636;10.012;2023-02-22T05:32:54;40.67;;;15.87;;
20857;SDS011;10589;53.636;10.012;2023-02-22T05:35:22;43.30;;;16.93;;
20857;SDS011;10589;53.636;10.012;2023-02-22T05:37:48;55.70;;;16.77;;
20857;SDS011;10589;53.636;10.012;2023-02-22T05:40:15;46.17;;;18.40;;
20857;SDS011;10589;53.636;10.012;2023-02-22T05:42:46;44.87;;;16.93;;
20857;SDS011;10589;53.636;10.012;2023-02-22T05:45:13;46.47;;;17.43;;
20857;SDS011;10589;53.636;10.012;2023-02-22T05:47:39;50.13;;;16.17;;
20857;SDS011;10589;53.636;10.012;2023-02-22T05:50:06;52.20;;;18.10;;
20857;SDS011;10589;53.636;10.012;2023-02-22T05:52:32;51.13;;;18.60;;
20857;SDS011;10589;53.636;10.012;2023-02-22T05:54:57;58.37;;;18.83;;
20857;SDS011;10589;53.636;10.012;2023-02-22T05:57:23;55.03;;;19.03;;
20857;SDS011;10589;53.636;10.012;2023-02-22T05:59:49;54.87;;;18.87;;
20857;SDS011;10589;53.636;10.012;2023-02-22T06:02:14;57.70;;;17.80;;
20857;SDS011;10589;53.636;10.012;2023-02-22T06:04:43;52.50;;;18.07;;
20857;SDS011;10589;53.636;10.012;2023-02-22T06:07:09;53.50;;;17.10;;
20857;SDS011;10589;53.636;10.012;2023-02-22T06:09:35;63.00;;;19.60;;
20857;SDS011;10589;53.636;10.012;2023-02-22T06:12:01;69.37;;;19.13;;
20857;SDS011;10589;53.636;10.012;2023-02-22T06:14:26;63.60;;;18.63;;
20857;SDS011;10589;53.636;10.012;2023-02-22T06:16:52;63.10;;;18.73;;
20857;SDS011;10589;53.636;10.012;2023-02-22T06:19:19;63.23;;;17.97;;
20857;SDS011;10589;53.636;10.012;2023-02-22T06:21:52;65.20;;;18.60;;
20857;SDS011;10589;53.636;10.012;2023-02-22T06:24:19;66.43;;;18.47;;
20857;SDS011;10589;53.636;10.012;2023-02-22T06:26:45;66.07;;;19.37;;
20857;SDS011;10589;53.636;10.012;2023-02-22T06:29:11;57.90;;;18.13;;
20857;SDS011;10589;53.636;10.012;2023-02-22T06:31:36;65.17;;;18.70;;
20857;SDS011;10589;53.636;10.012;2023-02-22T06:34:02;59.63;;;17.83;;
20857;SDS011;10589;53.636;10.012;2023-02-22T06:36:28;65.40;;;19.30;;
20857;SDS011;10589;53.636;10.012;2023-02-22T06:38:57;62.57;;;19.13;;
20857;SDS011;10589;53.636;10.012;2023-02-22T06:41:23;67.07;;;19.87;;
20857;SDS011;10589;53.636;10.012;2023-02-22T06:43:48;64.43;;;19.67;;
20857;SDS011;10589;53.636;10.012;2023-02-22T06:46:14;64.90;;;20.00;;
20857;SDS011;10589;53.636;10.012;2023-02-22T06:48:40;59.33;;;18.93;;
20857;SDS011;10589;53.636;10.012;2023-02-22T06:51:09;75.43;;;20.20;;
20857;SDS011;10589;53.636;10.012;2023-02-22T06:53:35;60.93;;;18.77;;
20857;SDS011;10589;53.636;10.012;2023-02-22T06:56:00;71.07;;;19.73;;
20857;SDS011;10589;53.636;10.012;2023-02-22T06:58:27;79.47;;;22.13;;
20857;SDS011;10589;53.636;10.012;2023-02-22T07:00:53;75.53;;;22.67;;
20857;SDS011;10589;53.636;10.012;2023-02-22T07:03:19;65.43;;;20.07;;
20857;SDS011;10589;53.636;10.012;2023-02-22T07:05:45;72.50;;;20.77;;
20857;SDS011;10589;53.636;10.012;2023-02-22T07:08:11;63.70;;;20.17;;
20857;SDS011;10589;53.636;10.012;2023-02-22T07:10:37;73.03;;;21.70;;
20857;SDS011;10589;53.636;10.012;2023-02-22T07:13:04;73.23;;;21.97;;
20857;SDS011;10589;53.636;10.012;2023-02-22T07:15:31;73.33;;;21.57;;
20857;SDS011;10589;53.636;10.012;2023-02-22T07:17:58;76.67;;;21.87;;
20857;SDS011;10589;53.636;10.012;2023-02-22T07:20:25;79.83;;;23.30;;
20857;SDS011;10589;53.636;10.012;2023-02-22T07:22:52;79.23;;;22.23;;
20857;SDS011;10589;53.636;10.012;2023-02-22T07:25:18;99.60;;;25.27;;
20857;SDS011;10589;53.636;10.012;2023-02-22T07:27:44;95.80;;;26.30;;
20857;SDS011;10589;53.636;10.012;2023-02-22T07:30:15;92.10;;;23.53;;
20857;SDS011;10589;53.636;10.012;2023-02-22T07:32:43;88.63;;;24.70;;
20857;SDS011;10589;53.636;10.012;2023-02-22T07:35:16;77.33;;;22.27;;
20857;SDS011;10589;53.636;10.012;2023-02-22T07:37:43;84.47;;;23.80;;
20857;SDS011;10589;53.636;10.012;2023-02-22T07:40:09;91.43;;;24.47;;
20857;SDS011;10589;53.636;10.012;2023-02-22T07:42:52;100.53;;;25.80;;
20857;SDS011;10589;53.636;10.012;2023-02-22T07:45:22;79.60;;;24.87;;
20857;SDS011;10589;53.636;10.012;2023-02-22T07:47:49;83.57;;;24.33;;
20857;SDS011;10589;53.636;10.012;2023-02-22T07:50:16;75.37;;;23.93;;
20857;SDS011;10589;53.636;10.012;2023-02-22T07:52:46;76.03;;;24.03;;
20857;SDS011;10589;53.636;10.012;2023-02-22T07:55:13;70.97;;;23.27;;
20857;SDS011;10589;53.636;10.012;2023-02-22T07:57:40;79.63;;;24.17;;
20857;SDS011;10589;53.636;10.012;2023-02-22T08:00:07;68.13;;;22.67;;
20857;SDS011;10589;53.636;10.012;2023-02-22T08:02:33;70.97;;;22.40;;
20857;SDS011;10589;53.636;10.012;2023-02-22T08:04:59;60.90;;;21.70;;
20857;SDS011;10589;53.636;10.012;2023-02-22T08:07:24;65.87;;;22.57;;
20857;SDS011;10589;53.636;10.012;2023-02-22T08:09:50;62.70;;;21.57;;
20857;SDS011;10589;53.636;10.012;2023-02-22T08:12:16;62.20;;;20.23;;
20857;SDS011;10589;53.636;10.012;2023-02-22T08:14:42;56.53;;;19.63;;
20857;SDS011;10589;53.636;10.012;2023-02-22T08:17:08;57.83;;;20.33;;
20857;SDS011;10589;53.636;10.012;2023-02-22T08:19:33;53.73;;;19.73;;
20857;SDS011;10589;53.636;10.012;2023-02-22T08:21:59;49.37;;;18.70;;
20857;SDS011;10589;53.636;10.012;2023-02-22T08:24:24;45.00;;;18.87;;
20857;SDS011;10589;53.636;10.012;2023-02-22T08:26:50;50.37;;;18.30;;
20857;SDS011;10589;53.636;10.012;2023-02-22T08:29:16;47.43;;;18.63;;
20857;SDS011;10589;53.636;10.012;2023-02-22T08:31:41;38.87;;;17.13;;
20857;SDS011;10589;53.636;10.012;2023-02-22T08:34:13;38.17;;;17.70;;
20857;SDS011;10589;53.636;10.012;2023-02-22T08:36:40;36.40;;;17.53;;
20857;SDS011;10589;53.636;10.012;2023-02-22T08:39:06;41.80;;;16.97;;
20857;SDS011;10589;53.636;10.012;2023-02-22T08:41:32;36.77;;;17.60;;
20857;SDS011;10589;53.636;10.012;2023-02-22T08:43:57;38.47;;;16.33;;
20857;SDS011;10589;53.636;10.012;2023-02-22T08:46:25;35.90;;;17.10;;
20857;SDS011;10589;53.636;10.012;2023-02-22T08:48:51;34.30;;;15.50;;
20857;SDS011;10589;53.636;10.012;2023-02-22T08:51:17;36.70;;;17.07;;
20857;SDS011;10589;53.636;10.012;2023-02-22T08:53:43;38.83;;;16.60;;
20857;SDS011;10589;53.636;10.012;2023-02-22T08:56:09;40.47;;;16.93;;
20857;SDS011;10589;53.636;10.012;2023-02-22T08:58:35;32.17;;;15.73;;
20857;SDS011;10589;53.636;10.012;2023-02-22T09:01:00;33.97;;;15.93;;
20857;SDS011;10589;53.636;10.012;2023-02-22T09:03:26;31.17;;;15.93;;
20857;SDS011;10589;53.636;10.012;2023-02-22T09:05:53;32.20;;;14.90;;
20857;SDS011;10589;53.636;10.012;2023-02-22T09:08:19;32.80;;;16.40;;
20857;SDS011;10589;53.636;10.012;2023-02-22T09:10:45;34.33;;;17.00;;
20857;SDS011;10589;53.636;10.012;2023-02-22T09:13:11;30.53;;;16.23;;
20857;SDS011;10589;53.636;10.012;2023-02-22T09:15:37;31.93;;;15.40;;
20857;SDS011;10589;53.636;10.012;2023-02-22T09:18:05;30.53;;;16.67;;
20857;SDS011;10589;53.636;10.012;2023-02-22T09:20:33;33.37;;;16.33;;
20857;SDS011;10589;53.636;10.012;2023-02-22T09:23:02;31.17;;;16.17;;
20857;SDS011;10589;53.636;10.012;2023-02-22T09:25:29;29.67;;;14.73;;
20857;SDS011;10589;53.636;10.012;2023-02-22T09:27:55;28.70;;;15.70;;
20857;SDS011;10589;53.636;10.012;2023-02-22T09:32:50;28.23;;;15.13;;
20857;SDS011;10589;53.636;10.012;2023-02-22T09:35:19;28.47;;;15.70;;
20857;SDS011;10589;53.636;10.012;2023-02-22T09:37:50;27.90;;;14.70;;
20857;SDS011;10589;53.636;10.012;2023-02-22T09:40:17;30.20;;;16.07;;
20857;SDS011;10589;53.636;10.012;2023-02-22T09:43:33;27.03;;;15.60;;
20857;SDS011;10589;53.636;10.012;2023-02-22T09:51:28;26.03;;;14.83;;
20857;SDS011;10589;53.636;10.012;2023-02-22T09:54:10;29.57;;;14.70;;
20857;SDS011;10589;53.636;10.012;2023-02-22T09:56:44;32.13;;;16.30;;
20857;SDS011;10589;53.636;10.012;2023-02-22T09:59:14;35.43;;;16.77;;
20857;SDS011;10589;53.636;10.012;2023-02-22T10:01:47;28.73;;;15.03;;
20857;SDS011;10589;53.636;10.012;2023-02-22T10:09:21;28.53;;;14.93;;
20857;SDS011;10589;53.636;10.012;2023-02-22T10:11:55;25.80;;;14.13;;
20857;SDS011;10589;53.636;10.012;2023-02-22T10:17:27;26.73;;;14.27;;
20857;SDS011;10589;53.636;10.012;2023-02-22T10:20:11;26.37;;;14.33;;
20857;SDS011;10589;53.636;10.012;2023-02-22T10:25:19;27.00;;;14.80;;
20857;SDS011;10589;53.636;10.012;2023-02-22T10:27:55;25.50;;;14.17;;
20857;SDS011;10589;53.636;10.012;2023-02-22T10:33:14;23.57;;;13.10;;
20857;SDS011;10589;53.636;10.012;2023-02-22T10:35:44;26.73;;;14.93;;
20857;SDS011;10589;53.636;10.012;2023-02-22T10:40:37;23.63;;;13.80;;
20857;SDS011;10589;53.636;10.012;2023-02-22T10:43:03;27.93;;;14.73;;
20857;SDS011;10589;53.636;10.012;2023-02-22T10:45:31;22.67;;;13.40;;
20857;SDS011;10589;53.636;10.012;2023-02-22T10:48:05;23.17;;;13.17;;
20857;SDS011;10589;53.636;10.012;2023-02-22T10:50:33;21.57;;;13.03;;
20857;SDS011;10589;53.636;10.012;2023-02-22T10:53:01;22.73;;;12.83;;
20857;SDS011;10589;53.636;10.012;2023-02-22T10:55:27;21.53;;;13.13;;
20857;SDS011;10589;53.636;10.012;2023-02-22T10:58:01;21.63;;;13.30;;
20857;SDS011;10589;53.636;10.012;2023-02-22T11:00:34;25.03;;;13.93;;
20857;SDS011;10589;53.636;10.012;2023-02-22T11:03:03;22.20;;;12.50;;
20857;SDS011;10589;53.636;10.012;2023-02-22T11:05:50;24.67;;;13.60;;
20857;SDS011;10589;53.636;10.012;2023-02-22T11:10:45;22.30;;;13.37;;
20857;SDS011;10589;53.636;10.012;2023-02-22T11:13:32;23.03;;;13.80;;
20857;SDS011;10589;53.636;10.012;2023-02-22T11:16:24;19.33;;;12.90;;
20857;SDS011;10589;53.636;10.012;2023-02-22T11:19:01;21.60;;;13.83;;
20857;SDS011;10589;53.636;10.012;2023-02-22T11:21:33;21.70;;;14.63;;
20857;SDS011;10589;53.636;10.012;2023-02-22T11:24:00;25.30;;;15.10;;
20857;SDS011;10589;53.636;10.012;2023-02-22T11:26:34;23.77;;;14.97;;
20857;SDS011;10589;53.636;10.012;2023-02-22T11:29:11;20.27;;;12.90;;
20857;SDS011;10589;53.636;10.012;2023-02-22T11:31:42;21.13;;;13.10;;
20857;SDS011;10589;53.636;10.012;2023-02-22T11:38:10;19.57;;;13.17;;
20857;SDS011;10589;53.636;10.012;2023-02-22T11:41:50;23.83;;;13.53;;
20857;SDS011;10589;53.636;10.012;2023-02-22T11:45:08;20.37;;;13.30;;
20857;SDS011;10589;53.636;10.012;2023-02-22T11:55:04;21.17;;;13.17;;
20857;SDS011;10589;53.636;10.012;2023-02-22T12:06:27;16.43;;;10.70;;
20857;SDS011;10589;53.636;10.012;2023-02-22T12:14:46;15.53;;;9.53;;
20857;SDS011;10589;53.636;10.012;2023-02-22T12:17:34;18.27;;;11.33;;
20857;SDS011;10589;53.636;10.012;2023-02-22T12:28:32;19.93;;;11.97;;
20857;SDS011;10589;53.636;10.012;2023-02-22T12:31:05;18.40;;;12.57;;
20857;SDS011;10589;53.636;10.012;2023-02-22T12:33:55;18.13;;;12.27;;
20857;SDS011;10589;53.636;10.012;2023-02-22T12:36:50;17.03;;;11.93;;
20857;SDS011;10589;53.636;10.012;2023-02-22T12:45:01;16.87;;;10.87;;
20857;SDS011;10589;53.636;10.012;2023-02-22T12:47:34;16.60;;;11.73;;
20857;SDS011;10589;53.636;10.012;2023-02-22T12:50:19;19.03;;;12.17;;
20857;SDS011;10589;53.636;10.012;2023-02-22T12:52:58;17.50;;;11.30;;
20857;SDS011;10589;53.636;10.012;2023-02-22T12:55:39;17.77;;;12.17;;
20857;SDS011;10589;53.636;10.012;2023-02-22T12:58:38;17.87;;;11.93;;
20857;SDS011;10589;53.636;10.012;2023-02-22T13:01:29;16.77;;;11.87;;
20857;SDS011;10589;53.636;10.012;2023-02-22T13:04:02;18.70;;;11.90;;
20857;SDS011;10589;53.636;10.012;2023-02-22T13:06:34;17.20;;;11.63;;
20857;SDS011;10589;53.636;10.012;2023-02-22T13:12:18;19.17;;;12.47;;
20857;SDS011;10589;53.636;10.012;2023-02-22T13:26:04;15.97;;;10.50;;
20857;SDS011;10589;53.636;10.012;2023-02-22T13:28:49;15.30;;;11.57;;
20857;SDS011;10589;53.636;10.012;2023-02-22T13:51:08;13.83;;;9.57;;
20857;SDS011;10589;53.636;10.012;2023-02-22T13:53:55;14.17;;;10.50;;
20857;SDS011;10589;53.636;10.012;2023-02-22T13:56:27;13.63;;;9.97;;
20857;SDS011;10589;53.636;10.012;2023-02-22T13:58:58;13.27;;;9.20;;
20857;SDS011;10589;53.636;10.012;2023-02-22T14:01:45;14.43;;;9.83;;
20857;SDS011;10589;53.636;10.012;2023-02-22T14:06:53;14.83;;;9.40;;
20857;SDS011;10589;53.636;10.012;2023-02-22T14:09:42;15.33;;;10.40;;
20857;SDS011;10589;53.636;10.012;2023-02-22T14:17:44;13.80;;;9.03;;
20857;SDS011;10589;53.636;10.012;2023-02-22T14:22:41;14.20;;;9.83;;
20857;SDS011;10589;53.636;10.012;2023-02-22T14:27:59;12.77;;;9.17;;
20857;SDS011;10589;53.636;10.012;2023-02-22T14:30:29;15.83;;;9.27;;
20857;SDS011;10589;53.636;10.012;2023-02-22T14:32:58;12.93;;;9.23;;
20857;SDS011;10589;53.636;10.012;2023-02-22T14:35:24;12.70;;;8.83;;
20857;SDS011;10589;53.636;10.012;2023-02-22T14:38:02;15.17;;;9.57;;
20857;SDS011;10589;53.636;10.012;2023-02-22T14:40:32;17.10;;;10.43;;
20857;SDS011;10589;53.636;10.012;2023-02-22T14:43:02;16.40;;;10.73;;
20857;SDS011;10589;53.636;10.012;2023-02-22T14:45:38;19.53;;;11.60;;
20857;SDS011;10589;53.636;10.012;2023-02-22T14:51:18;17.60;;;11.27;;
20857;SDS011;10589;53.636;10.012;2023-02-22T14:53:51;19.37;;;11.23;;
20857;SDS011;10589;53.636;10.012;2023-02-22T14:56:22;18.30;;;11.53;;
20857;SDS011;10589;53.636;10.012;2023-02-22T15:01:37;18.97;;;11.63;;
20857;SDS011;10589;53.636;10.012;2023-02-22T15:06:52;17.53;;;11.10;;
20857;SDS011;10589;53.636;10.012;2023-02-22T15:09:20;19.97;;;12.77;;
20857;SDS011;10589;53.636;10.012;2023-02-22T15:12:09;16.87;;;12.13;;
20857;SDS011;10589;53.636;10.012;2023-02-22T15:14:37;23.17;;;13.37;;
20857;SDS011;10589;53.636;10.012;2023-02-22T15:17:12;22.23;;;12.23;;
20857;SDS011;10589;53.636;10.012;2023-02-22T15:19:44;19.97;;;12.60;;
20857;SDS011;10589;53.636;10.012;2023-02-22T15:22:19;22.13;;;13.10;;
20857;SDS011;10589;53.636;10.012;2023-02-22T15:24:54;20.53;;;12.20;;
20857;SDS011;10589;53.636;10.012;2023-02-22T15:27:23;22.07;;;12.60;;
20857;SDS011;10589;53.636;10.012;2023-02-22T15:29:49;20.17;;;12.57;;
20857;SDS011;10589;53.636;10.012;2023-02-22T15:37:43;21.20;;;13.47;;
20857;SDS011;10589;53.636;10.012;2023-02-22T15:40:12;19.03;;;12.33;;
20857;SDS011;10589;53.636;10.012;2023-02-22T15:42:49;18.50;;;11.80;;
20857;SDS011;10589;53.636;10.012;2023-02-22T15:45:22;21.60;;;12.53;;
20857;SDS011;10589;53.636;10.012;2023-02-22T15:47:49;19.07;;;12.03;;
20857;SDS011;10589;53.636;10.012;2023-02-22T15:50:25;22.57;;;12.90;;
20857;SDS011;10589;53.636;10.012;2023-02-22T15:53:34;21.00;;;12.03;;
20857;SDS011;10589;53.636;10.012;2023-02-22T15:55:57;19.17;;;11.40;;
20857;SDS011;10589;53.636;10.012;2023-02-22T15:58:25;18.53;;;10.93;;
20857;SDS011;10589;53.636;10.012;2023-02-22T16:03:50;21.60;;;11.87;;
20857;SDS011;10589;53.636;10.012;2023-02-22T16:09:06;19.53;;;12.47;;
20857;SDS011;10589;53.636;10.012;2023-02-22T16:11:33;21.60;;;12.00;;
20857;SDS011;10589;53.636;10.012;2023-02-22T16:14:04;21.37;;;11.90;;
20857;SDS011;10589;53.636;10.012;2023-02-22T16:16:49;22.47;;;11.67;;
20857;SDS011;10589;53.636;10.012;2023-02-22T16:19:37;19.90;;;12.00;;
20857;SDS011;10589;53.636;10.012;2023-02-22T16:22:05;21.63;;;12.50;;
20857;SDS011;10589;53.636;10.012;2023-02-22T16:24:46;21.13;;;12.37;;
20857;SDS011;10589;53.636;10.012;2023-02-22T16:27:17;23.70;;;12.43;;
20857;SDS011;10589;53.636;10.012;2023-02-22T16:29:58;19.37;;;11.80;;
20857;SDS011;10589;53.636;10.012;2023-02-22T16:32:25;17.67;;;11.23;;
20857;SDS011;10589;53.636;10.012;2023-02-22T16:34:51;19.47;;;11.57;;
20857;SDS011;10589;53.636;10.012;2023-02-22T16:37:20;19.07;;;11.50;;
20857;SDS011;10589;53.636;10.012;2023-02-22T16:39:47;22.27;;;12.17;;
20857;SDS011;10589;53.636;10.012;2023-02-22T16:42:15;17.63;;;12.07;;
20857;SDS011;10589;53.636;10.012;2023-02-22T16:44:49;20.77;;;12.50;;
20857;SDS011;10589;53.636;10.012;2023-02-22T16:47:15;20.43;;;12.67;;
20857;SDS011;10589;53.636;10.012;2023-02-22T16:49:41;22.40;;;12.93;;
20857;SDS011;10589;53.636;10.012;2023-02-22T16:52:07;24.67;;;13.40;;
20857;SDS011;10589;53.636;10.012;2023-02-22T16:54:34;23.33;;;12.40;;
20857;SDS011;10589;53.636;10.012;2023-02-22T16:57:05;22.50;;;12.10;;
20857;SDS011;10589;53.636;10.012;2023-02-22T16:59:31;24.33;;;12.90;;
20857;SDS011;10589;53.636;10.012;2023-02-22T17:02:02;19.10;;;12.87;;
20857;SDS011;10589;53.636;10.012;2023-02-22T17:04:31;19.73;;;12.00;;
20857;SDS011;10589;53.636;10.012;2023-02-22T17:06:57;21.97;;;12.80;;
20857;SDS011;10589;53.636;10.012;2023-02-22T17:09:23;20.53;;;13.53;;
20857;SDS011;10589;53.636;10.012;2023-02-22T17:11:49;22.73;;;14.60;;
20857;SDS011;10589;53.636;10.012;2023-02-22T17:14:17;25.03;;;14.60;;
20857;SDS011;10589;53.636;10.012;2023-02-22T17:16:50;22.57;;;13.80;;
20857;SDS011;10589;53.636;10.012;2023-02-22T17:19:17;20.97;;;13.30;;
20857;SDS011;10589;53.636;10.012;2023-02-22T17:21:45;26.90;;;14.63;;
20857;SDS011;10589;53.636;10.012;2023-02-22T17:24:11;25.83;;;14.43;;
20857;SDS011;10589;53.636;10.012;2023-02-22T17:26:39;23.17;;;14.10;;
20857;SDS011;10589;53.636;10.012;2023-02-22T17:29:05;26.13;;;13.53;;
20857;SDS011;10589;53.636;10.012;2023-02-22T17:31:31;25.73;;;14.83;;
20857;SDS011;10589;53.636;10.012;2023-02-22T17:33:58;24.67;;;14.27;;
20857;SDS011;10589;53.636;10.012;2023-02-22T17:36:27;24.17;;;14.57;;
20857;SDS011;10589;53.636;10.012;2023-02-22T17:38:54;24.73;;;14.00;;
20857;SDS011;10589;53.636;10.012;2023-02-22T17:41:20;25.60;;;14.37;;
20857;SDS011;10589;53.636;10.012;2023-02-22T17:43:46;25.30;;;14.23;;
20857;SDS011;10589;53.636;10.012;2023-02-22T17:46:11;25.17;;;14.20;;
20857;SDS011;10589;53.636;10.012;2023-02-22T17:48:37;25.87;;;14.23;;
20857;SDS011;10589;53.636;10.012;2023-02-22T17:51:07;21.10;;;14.07;;
20857;SDS011;10589;53.636;10.012;2023-02-22T17:53:35;24.77;;;13.83;;
20857;SDS011;10589;53.636;10.012;2023-02-22T17:56:07;25.17;;;13.73;;
20857;SDS011;10589;53.636;10.012;2023-02-22T17:58:37;26.17;;;13.83;;
20857;SDS011;10589;53.636;10.012;2023-02-22T18:01:03;23.03;;;14.13;;
20857;SDS011;10589;53.636;10.012;2023-02-22T18:03:29;23.97;;;13.77;;
20857;SDS011;10589;53.636;10.012;2023-02-22T18:05:56;22.10;;;13.43;;
20857;SDS011;10589;53.636;10.012;2023-02-22T18:08:24;23.40;;;12.97;;
20857;SDS011;10589;53.636;10.012;2023-02-22T18:10:54;21.73;;;13.57;;
20857;SDS011;10589;53.636;10.012;2023-02-22T18:13:26;24.97;;;13.67;;
20857;SDS011;10589;53.636;10.012;2023-02-22T18:15:52;21.63;;;13.47;;
20857;SDS011;10589;53.636;10.012;2023-02-22T18:18:23;23.40;;;14.07;;
20857;SDS011;10589;53.636;10.012;2023-02-22T18:20:49;22.67;;;13.43;;
20857;SDS011;10589;53.636;10.012;2023-02-22T18:23:23;21.00;;;12.33;;
20857;SDS011;10589;53.636;10.012;2023-02-22T18:25:52;20.87;;;12.90;;
20857;SDS011;10589;53.636;10.012;2023-02-22T18:28:18;20.43;;;12.63;;
20857;SDS011;10589;53.636;10.012;2023-02-22T18:30:46;21.63;;;12.37;;
20857;SDS011;10589;53.636;10.012;2023-02-22T18:33:13;22.13;;;12.80;;
20857;SDS011;10589;53.636;10.012;2023-02-22T18:35:42;22.50;;;13.30;;
20857;SDS011;10589;53.636;10.012;2023-02-22T18:38:09;20.50;;;12.23;;
20857;SDS011;10589;53.636;10.012;2023-02-22T18:40:39;23.40;;;12.83;;
20857;SDS011;10589;53.636;10.012;2023-02-22T18:43:07;20.10;;;12.50;;
20857;SDS011;10589;53.636;10.012;2023-02-22T18:45:33;17.23;;;11.57;;
20857;SDS011;10589;53.636;10.012;2023-02-22T18:48:00;18.40;;;12.20;;
20857;SDS011;10589;53.636;10.012;2023-02-22T18:50:25;22.17;;;12.27;;
20857;SDS011;10589;53.636;10.012;2023-02-22T18:52:52;20.67;;;12.07;;
20857;SDS011;10589;53.636;10.012;2023-02-22T18:55:20;20.07;;;13.17;;
20857;SDS011;10589;53.636;10.012;2023-02-22T18:57:47;19.23;;;12.13;;
20857;SDS011;10589;53.636;10.012;2023-02-22T19:00:16;18.83;;;11.43;;
20857;SDS011;10589;53.636;10.012;2023-02-22T19:02:42;20.33;;;12.00;;
20857;SDS011;10589;53.636;10.012;2023-02-22T19:05:09;23.63;;;12.27;;
20857;SDS011;10589;53.636;10.012;2023-02-22T19:07:35;22.40;;;12.27;;
20857;SDS011;10589;53.636;10.012;2023-02-22T19:10:01;20.77;;;12.47;;
20857;SDS011;10589;53.636;10.012;2023-02-22T19:12:28;18.43;;;11.77;;
20857;SDS011;10589;53.636;10.012;2023-02-22T19:14:55;23.00;;;12.33;;
20857;SDS011;10589;53.636;10.012;2023-02-22T19:17:23;19.93;;;12.30;;
20857;SDS011;10589;53.636;10.012;2023-02-22T19:19:49;19.63;;;12.37;;
20857;SDS011;10589;53.636;10.012;2023-02-22T19:22:15;21.57;;;12.43;;
20857;SDS011;10589;53.636;10.012;2023-02-22T19:24:41;20.80;;;13.30;;
20857;SDS011;10589;53.636;10.012;2023-02-22T19:27:08;19.70;;;12.10;;
20857;SDS011;10589;53.636;10.012;2023-02-22T19:29:33;19.40;;;12.70;;
20857;SDS011;10589;53.636;10.012;2023-02-22T19:32:03;22.47;;;13.10;;
20857;SDS011;10589;53.636;10.012;2023-02-22T19:34:29;23.43;;;14.30;;
20857;SDS011;10589;53.636;10.012;2023-02-22T19:36:56;23.50;;;13.77;;
20857;SDS011;10589;53.636;10.012;2023-02-22T19:39:25;21.20;;;13.73;;
20857;SDS011;10589;53.636;10.012;2023-02-22T19:41:53;23.20;;;13.93;;
20857;SDS011;10589;53.636;10.012;2023-02-22T19:44:22;22.80;;;13.97;;
20857;SDS011;10589;53.636;10.012;2023-02-22T19:46:49;24.33;;;13.90;;
20857;SDS011;10589;53.636;10.012;2023-02-22T19:49:15;23.73;;;13.87;;
20857;SDS011;10589;53.636;10.012;2023-02-22T19:51:41;22.53;;;13.73;;
20857;SDS011;10589;53.636;10.012;2023-02-22T19:54:08;23.27;;;13.63;;
20857;SDS011;10589;53.636;10.012;2023-02-22T19:56:38;23.80;;;13.60;;
20857;SDS011;10589;53.636;10.012;2023-02-22T19:59:05;26.23;;;14.53;;
20857;SDS011;10589;53.636;10.012;2023-02-22T20:01:36;27.83;;;14.87;;
20857;SDS011;10589;53.636;10.012;2023-02-22T20:04:03;26.07;;;14.10;;
20857;SDS011;10589;53.636;10.012;2023-02-22T20:06:31;26.10;;;14.70;;
20857;SDS011;10589;53.636;10.012;2023-02-22T20:09:09;26.30;;;15.70;;
20857;SDS011;10589;53.636;10.012;2023-02-22T20:11:37;24.83;;;14.13;;
20857;SDS011;10589;53.636;10.012;2023-02-22T20:14:03;24.93;;;14.40;;
20857;SDS011;10589;53.636;10.012;2023-02-22T20:16:32;26.37;;;14.57;;
20857;SDS011;10589;53.636;10.012;2023-02-22T20:18:59;26.40;;;15.43;;
20857;SDS011;10589;53.636;10.012;2023-02-22T20:21:26;25.97;;;14.43;;
20857;SDS011;10589;53.636;10.012;2023-02-22T20:23:59;22.83;;;13.43;;
20857;SDS011;10589;53.636;10.012;2023-02-22T20:26:31;27.70;;;14.97;;
20857;SDS011;10589;53.636;10.012;2023-02-22T20:28:58;26.73;;;15.47;;
20857;SDS011;10589;53.636;10.012;2023-02-22T20:31:24;25.23;;;13.70;;
20857;SDS011;10589;53.636;10.012;2023-02-22T20:33:54;26.70;;;15.10;;
20857;SDS011;10589;53.636;10.012;2023-02-22T20:36:22;29.83;;;16.23;;
20857;SDS011;10589;53.636;10.012;2023-02-22T20:38:52;29.93;;;15.00;;
20857;SDS011;10589;53.636;10.012;2023-02-22T20:41:23;28.67;;;15.53;;
20857;SDS011;10589;53.636;10.012;2023-02-22T20:43:51;28.07;;;15.60;;
20857;SDS011;10589;53.636;10.012;2023-02-22T20:46:19;28.67;;;15.43;;
20857;SDS011;10589;53.636;10.012;2023-02-22T20:48:44;25.73;;;15.50;;
20857;SDS011;10589;53.636;10.012;2023-02-22T20:51:11;27.27;;;14.53;;
20857;SDS011;10589;53.636;10.012;2023-02-22T20:53:38;29.17;;;14.87;;
20857;SDS011;10589;53.636;10.012;2023-02-22T20:56:06;30.57;;;14.97;;
20857;SDS011;10589;53.636;10.012;2023-02-22T20:58:40;27.67;;;14.47;;
20857;SDS011;10589;53.636;10.012;2023-02-22T21:01:08;25.10;;;13.67;;
20857;SDS011;10589;53.636;10.012;2023-02-22T21:03:36;22.00;;;13.97;;
20857;SDS011;10589;53.636;10.012;2023-02-22T21:06:05;28.43;;;15.07;;
20857;SDS011;10589;53.636;10.012;2023-02-22T21:08:31;24.80;;;13.63;;
20857;SDS011;10589;53.636;10.012;2023-02-22T21:10:57;29.90;;;15.33;;
20857;SDS011;10589;53.636;10.012;2023-02-22T21:13:23;27.33;;;14.77;;
20857;SDS011;10589;53.636;10.012;2023-02-22T21:15:49;26.87;;;14.43;;
20857;SDS011;10589;53.636;10.012;2023-02-22T21:18:16;25.83;;;14.13;;
20857;SDS011;10589;53.636;10.012;2023-02-22T21:20:45;28.60;;;15.30;;
20857;SDS011;10589;53.636;10.012;2023-02-22T21:23:12;28.33;;;14.60;;